createdAt,value
2019-04-03T00:02:15.808Z,96337.71
2019-04-03T00:05:22.647Z,96338.41
2019-04-03T00:08:29.539Z,96333.63
2019-04-03T00:11:39.511Z,96322.26
2019-04-03T00:14:45.872Z,96323.98
2019-04-03T00:17:52.735Z,96322.39
2019-04-03T00:21:02.329Z,96319.02
2019-04-03T00:24:09.781Z,96303.84
2019-04-03T00:27:16.659Z,96288.78
2019-04-03T00:30:24.750Z,96280.19
2019-04-03T00:33:31.618Z,96284.62
2019-04-03T00:36:38.468Z,96275.28
2019-04-03T00:39:47.527Z,96261.83
2019-04-03T00:42:54.848Z,96264.68
2019-04-03T00:46:01.837Z,96256.00
2019-04-03T00:49:08.678Z,96254.10
2019-04-03T00:52:15.569Z,96249.38
2019-04-03T00:55:22.411Z,96234.54
2019-04-03T00:58:47.712Z,96234.91
2019-04-03T01:01:56.065Z,96231.86
2019-04-03T01:05:03.760Z,96230.02
2019-04-03T01:08:10.986Z,96227.91
2019-04-03T01:11:17.972Z,96225.63
2019-04-03T01:14:24.793Z,96219.55
2019-04-03T01:17:34.399Z,96210.09
2019-04-03T01:20:40.405Z,96201.38
2019-04-03T01:23:50.170Z,96203.98
2019-04-03T01:26:57.415Z,96206.65
2019-04-03T01:30:04.711Z,96205.78
2019-04-03T01:33:11.648Z,96211.42
2019-04-03T01:36:18.527Z,96220.66
2019-04-03T01:39:25.364Z,96213.25
2019-04-03T01:42:32.241Z,96201.70
2019-04-03T01:45:39.543Z,96192.78
2019-04-03T01:48:49.222Z,96196.62
2019-04-03T01:51:56.182Z,96204.96
2019-04-03T01:55:04.254Z,96203.42
2019-04-03T01:58:11.394Z,96197.98
2019-04-03T02:01:18.251Z,96195.28
2019-04-03T02:04:25.098Z,96195.05
2019-04-03T02:07:31.969Z,96191.59
2019-04-03T02:10:39.304Z,96181.38
2019-04-03T02:13:46.989Z,96174.23
2019-04-03T02:16:54.069Z,96173.64
2019-04-03T02:20:01.155Z,96173.11
2019-04-03T02:23:08.030Z,96163.56
2019-04-03T02:26:14.910Z,96159.95
2019-04-03T02:29:22.325Z,96161.30
2019-04-03T02:32:29.262Z,96158.14
2019-04-03T02:35:38.749Z,96148.57
2019-04-03T02:38:46.941Z,96137.69
2019-04-03T02:41:53.821Z,96133.39
2019-04-03T02:45:00.811Z,96128.87
2019-04-03T02:48:07.718Z,96121.88
2019-04-03T02:51:17.006Z,96133.52
2019-04-03T02:54:34.811Z,96131.75
2019-04-03T02:57:39.101Z,96131.86
2019-04-03T03:00:46.335Z,96130.13
2019-04-03T03:03:53.216Z,96130.13
2019-04-03T03:07:03.375Z,96122.45
2019-04-03T03:10:09.437Z,96122.59
2019-04-03T03:13:16.533Z,96126.30
2019-04-03T03:16:23.558Z,96122.75
2019-04-03T03:19:33.022Z,96137.15
2019-04-03T03:22:41.527Z,96152.42
2019-04-03T03:25:51.184Z,96146.05
2019-04-03T03:29:14.161Z,96142.80
2019-04-03T03:32:14.890Z,96144.66
2019-04-03T03:35:25.999Z,96150.98
2019-04-03T03:38:28.167Z,96153.41
2019-04-03T03:41:34.640Z,96151.02
2019-04-03T03:44:46.067Z,96149.74
2019-04-03T03:47:53.347Z,96152.74
2019-04-03T03:51:01.172Z,96148.66
2019-04-03T03:54:08.069Z,96151.81
2019-04-03T03:57:14.894Z,96154.14
2019-04-03T04:00:23.220Z,96156.73
2019-04-03T04:03:31.486Z,96154.61
2019-04-03T04:06:38.628Z,96146.95
2019-04-03T04:09:49.579Z,96147.17
2019-04-03T04:12:54.052Z,96142.59
2019-04-03T04:16:03.826Z,96151.70
2019-04-03T04:19:10.069Z,96156.26
2019-04-03T04:22:18.187Z,96151.19
2019-04-03T04:25:25.973Z,96140.91
2019-04-03T04:28:32.929Z,96142.16
2019-04-03T04:31:43.356Z,96143.83
2019-04-03T04:34:50.648Z,96142.90
2019-04-03T04:37:57.629Z,96141.03
2019-04-03T04:41:04.552Z,96146.41
2019-04-03T04:44:14.215Z,96141.05
2019-04-03T04:47:19.974Z,96133.28
2019-04-03T04:50:26.969Z,96136.27
2019-04-03T04:53:33.814Z,96131.16
2019-04-03T04:56:41.077Z,96134.16
2019-04-03T04:59:48.568Z,96131.81
2019-04-03T05:02:56.572Z,96119.16
2019-04-03T05:06:04.820Z,96133.42
2019-04-03T05:09:11.701Z,96140.45
2019-04-03T05:12:19.080Z,96136.05
2019-04-03T05:15:26.099Z,96121.78
2019-04-03T05:18:32.973Z,96119.01
2019-04-03T05:21:40.393Z,96122.37
2019-04-03T05:24:47.298Z,96126.72
2019-04-03T05:27:54.215Z,96114.84
2019-04-03T05:31:01.250Z,96107.34
2019-04-03T05:34:08.128Z,96126.20
2019-04-03T05:37:18.026Z,96152.83
2019-04-03T05:40:26.209Z,96144.84
2019-04-03T05:43:36.195Z,96135.97
2019-04-03T05:46:43.150Z,96148.38
2019-04-03T05:49:51.698Z,96137.25
2019-04-03T05:52:58.577Z,96126.71
2019-04-03T05:56:05.416Z,96125.75
2019-04-03T05:59:12.312Z,96118.62
2019-04-03T06:02:21.385Z,96128.53
2019-04-03T06:05:29.513Z,96131.94
2019-04-03T06:08:36.445Z,96133.64
2019-04-03T06:11:43.304Z,96129.66
2019-04-03T06:14:50.938Z,96137.17
2019-04-03T06:17:57.915Z,96112.02
2019-04-03T06:21:05.760Z,96090.34
2019-04-03T06:24:12.772Z,96092.34
2019-04-03T06:27:20.043Z,96126.53
2019-04-03T06:30:27.511Z,96134.88
2019-04-03T06:33:36.070Z,96135.88
2019-04-03T06:36:43.194Z,96130.02
2019-04-03T06:39:50.367Z,96129.01
2019-04-03T06:42:57.376Z,96137.20
2019-04-03T06:46:04.285Z,96127.52
2019-04-03T06:49:11.199Z,96125.91
2019-04-03T06:52:19.450Z,96121.41
2019-04-03T06:55:26.855Z,96120.36
2019-04-03T06:58:39.384Z,96112.58
2019-04-03T07:01:42.857Z,96110.12
2019-04-03T07:04:49.698Z,96106.19
2019-04-03T07:07:56.583Z,96109.61
2019-04-03T07:11:03.573Z,96111.73
2019-04-03T07:14:11.638Z,96109.94
2019-04-03T07:17:19.599Z,96109.45
2019-04-03T07:20:26.822Z,96109.31
2019-04-03T07:23:33.932Z,96097.58
2019-04-03T07:26:40.835Z,96104.63
2019-04-03T07:29:48.925Z,96104.32
2019-04-03T07:32:57.989Z,96107.64
2019-04-03T07:36:05.007Z,96106.03
2019-04-03T07:39:12.031Z,96104.57
2019-04-03T07:42:20.035Z,96103.38
2019-04-03T07:45:27.115Z,96103.94
2019-04-03T07:48:34.074Z,96108.09
2019-04-03T07:51:42.728Z,96115.11
2019-04-03T07:54:51.867Z,96106.98
2019-04-03T07:57:59.973Z,96099.08
2019-04-03T08:01:09.509Z,96099.27
2019-04-03T08:04:16.625Z,96109.08
2019-04-03T08:07:25.194Z,96118.21
2019-04-03T08:10:33.055Z,96111.08
2019-04-03T08:13:40.208Z,96105.70
2019-04-03T08:16:48.830Z,96097.27
2019-04-03T08:19:55.791Z,96095.04
2019-04-03T08:23:04.727Z,96092.69
2019-04-03T08:26:12.192Z,96083.64
2019-04-03T08:29:19.342Z,96090.87
2019-04-03T08:32:29.099Z,96085.44
2019-04-03T08:35:36.459Z,96094.14
2019-04-03T08:38:44.903Z,96096.33
2019-04-03T08:41:55.285Z,96095.12
2019-04-03T08:45:01.964Z,96085.95
2019-04-03T08:48:09.110Z,96088.40
2019-04-03T08:51:15.993Z,96095.09
2019-04-03T08:54:28.631Z,96103.62
2019-04-03T08:57:35.509Z,96099.05
2019-04-03T09:00:42.391Z,96091.80
2019-04-03T09:03:49.238Z,96090.08
2019-04-03T09:06:56.354Z,96096.55
2019-04-03T09:10:03.288Z,96095.89
2019-04-03T09:13:17.791Z,96100.31
2019-04-03T09:16:19.136Z,96092.19
2019-04-03T09:19:27.158Z,96085.01
2019-04-03T09:22:34.511Z,96087.84
2019-04-03T09:25:41.583Z,96084.31
2019-04-03T09:28:48.523Z,96097.31
2019-04-03T09:31:56.611Z,96090.33
2019-04-03T09:35:04.032Z,96090.97
2019-04-03T09:38:11.038Z,96096.03
2019-04-03T09:41:19.549Z,96092.63
2019-04-03T09:44:26.474Z,96091.95
2019-04-03T09:47:34.975Z,96096.34
2019-04-03T09:50:42.204Z,96097.06
2019-04-03T09:53:49.247Z,96092.82
2019-04-03T09:57:01.654Z,96092.80
2019-04-03T10:00:09.895Z,96078.05
2019-04-03T10:03:15.709Z,96079.89
2019-04-03T10:06:22.579Z,96080.71
2019-04-03T10:09:30.970Z,96073.63
2019-04-03T10:12:57.065Z,96068.84
2019-04-03T10:16:04.395Z,96070.59
2019-04-03T10:19:13.543Z,96067.80
2019-04-03T10:22:19.963Z,96068.03
2019-04-03T10:25:26.827Z,96065.42
2019-04-03T10:28:35.524Z,96054.99
2019-04-03T10:31:42.698Z,96051.06
2019-04-03T10:34:50.032Z,96052.42
2019-04-03T10:37:56.960Z,96041.95
2019-04-03T10:41:04.039Z,96041.27
2019-04-03T10:44:12.693Z,96036.25
2019-04-03T10:47:24.707Z,96031.97
2019-04-03T10:50:29.681Z,96026.81
2019-04-03T10:53:36.904Z,96021.54
2019-04-03T10:56:44.136Z,96008.29
2019-04-03T10:59:54.506Z,96003.70
2019-04-03T11:02:59.691Z,95995.64
2019-04-03T11:06:06.676Z,95988.22
2019-04-03T11:09:13.627Z,95981.71
2019-04-03T11:12:20.564Z,95969.05
2019-04-03T11:15:28.694Z,95962.94
2019-04-03T11:18:35.880Z,95963.08
2019-04-03T11:21:44.084Z,95964.80
2019-04-03T11:24:51.882Z,95950.14
2019-04-03T11:27:58.828Z,95946.81
2019-04-03T11:31:06.165Z,95946.14
2019-04-03T11:34:13.189Z,95940.59
2019-04-03T11:37:20.099Z,95939.52
2019-04-03T11:40:27.939Z,95940.38
2019-04-03T11:43:34.959Z,95937.16
2019-04-03T11:46:41.875Z,95934.29
2019-04-03T11:49:49.827Z,95941.55
2019-04-03T11:53:01.506Z,95933.91
2019-04-03T11:56:06.608Z,95932.36
2019-04-03T11:59:13.904Z,95928.02
2019-04-03T12:02:24.028Z,95924.84
2019-04-03T12:05:31.462Z,95915.42
2019-04-03T12:08:38.467Z,95915.78
2019-04-03T12:11:45.402Z,95909.05
2019-04-03T12:14:52.281Z,95910.06
2019-04-03T12:18:01.528Z,95898.39
2019-04-03T12:21:09.957Z,95899.56
2019-04-03T12:24:16.557Z,95888.83
2019-04-03T12:27:26.258Z,95883.64
2019-04-03T12:30:33.201Z,95880.59
2019-04-03T12:33:52.011Z,95877.80
2019-04-03T12:36:49.027Z,95873.03
2019-04-03T12:39:56.270Z,95867.06
2019-04-03T12:43:03.286Z,95863.61
2019-04-03T12:46:10.167Z,95862.36
2019-04-03T12:49:17.457Z,95842.43
2019-04-03T12:52:25.745Z,95839.04
2019-04-03T12:55:33.897Z,95836.49
2019-04-03T12:58:40.990Z,95827.88
2019-04-03T13:01:49.241Z,95823.52
2019-04-03T13:04:56.961Z,95819.56
2019-04-03T13:08:04.133Z,95814.56
2019-04-03T13:11:11.178Z,95816.08
2019-04-03T13:14:25.666Z,95807.88
2019-04-03T13:17:27.199Z,95795.89
2019-04-03T13:20:36.053Z,95796.66
2019-04-03T13:23:45.745Z,95785.37
2019-04-03T13:26:51.515Z,95780.30
2019-04-03T13:29:58.427Z,95776.65
2019-04-03T13:33:07.107Z,95766.74
2019-04-03T13:36:13.876Z,95768.83
2019-04-03T13:39:21.144Z,95776.69
2019-04-03T13:42:31.062Z,95782.09
2019-04-03T13:45:36.965Z,95773.55
2019-04-03T13:48:44.976Z,95772.18
2019-04-03T13:51:52.779Z,95767.78
2019-04-03T13:55:00.091Z,95763.48
2019-04-03T13:58:07.520Z,95764.30
2019-04-03T14:01:14.829Z,95760.03
2019-04-03T14:04:23.349Z,95754.37
2019-04-03T14:07:31.622Z,95745.02
2019-04-03T14:10:38.997Z,95748.16
2019-04-03T14:13:45.978Z,95737.14
2019-04-03T14:16:52.884Z,95736.01
2019-04-03T14:19:59.808Z,95729.08
2019-04-03T14:23:06.722Z,95724.27
2019-04-03T14:26:14.663Z,95732.64
2019-04-03T14:29:47.210Z,95735.26
2019-04-03T14:32:34.549Z,95730.45
2019-04-03T14:35:49.873Z,95736.05
2019-04-03T14:38:50.298Z,95724.42
2019-04-03T14:41:57.172Z,95722.95
2019-04-03T14:45:05.228Z,95724.97
2019-04-03T14:48:12.825Z,95727.55
2019-04-03T14:51:22.938Z,95721.52
2019-04-03T14:54:31.551Z,95719.70
2019-04-03T14:57:39.334Z,95718.67
2019-04-03T15:00:49.853Z,95719.39
2019-04-03T15:04:00.759Z,95709.67
2019-04-03T15:07:09.533Z,95714.00
2019-04-03T15:10:17.837Z,95708.86
2019-04-03T15:13:26.704Z,95708.41
2019-04-03T15:16:33.764Z,95713.15
2019-04-03T15:19:40.698Z,95713.83
2019-04-03T15:22:47.887Z,95711.18
2019-04-03T15:25:55.773Z,95718.27
2019-04-03T15:29:02.809Z,95722.43
2019-04-03T15:32:09.796Z,95720.76
2019-04-03T15:35:17.126Z,95715.01
2019-04-03T15:38:24.420Z,95713.55
2019-04-03T15:41:34.208Z,95704.42
2019-04-03T15:44:41.115Z,95704.72
2019-04-03T15:47:48.453Z,95706.07
2019-04-03T15:50:55.504Z,95702.31
2019-04-03T15:54:02.399Z,95695.36
2019-04-03T15:57:09.252Z,95698.95
2019-04-03T16:00:21.331Z,95690.92
2019-04-03T16:03:29.132Z,95694.74
2019-04-03T16:06:36.801Z,95685.64
2019-04-03T16:09:44.688Z,95686.50
2019-04-03T16:12:52.038Z,95685.07
2019-04-03T16:16:01.561Z,95685.05
2019-04-03T16:19:11.376Z,95676.56
2019-04-03T16:22:17.185Z,95671.70
2019-04-03T16:25:24.415Z,95667.34
2019-04-03T16:28:34.079Z,95665.25
2019-04-03T16:31:39.996Z,95662.25
2019-04-03T16:34:47.463Z,95656.23
2019-04-03T16:37:56.580Z,95657.34
2019-04-03T16:41:03.571Z,95651.55
2019-04-03T16:44:10.537Z,95646.16
2019-04-03T16:47:17.985Z,95646.75
2019-04-03T16:50:27.322Z,95642.95
2019-04-03T16:53:33.755Z,95638.41
2019-04-03T16:56:40.803Z,95637.89
2019-04-03T16:59:47.986Z,95633.98
2019-04-03T17:02:59.118Z,95626.66
2019-04-03T17:06:06.776Z,95630.62
2019-04-03T17:09:13.867Z,95622.20
2019-04-03T17:12:20.760Z,95622.44
2019-04-03T17:15:32.263Z,95624.91
2019-04-03T17:18:37.291Z,95621.09
2019-04-03T17:21:44.395Z,95619.93
2019-04-03T17:24:53.980Z,95619.61
2019-04-03T17:28:04.583Z,95614.33
2019-04-03T17:31:09.075Z,95610.64
2019-04-03T17:34:16.082Z,95603.95
2019-04-03T17:37:25.493Z,95601.14
2019-04-03T17:40:31.536Z,95596.88
2019-04-03T17:43:38.548Z,95596.77
2019-04-03T17:46:48.612Z,95592.71
2019-04-03T17:49:55.236Z,95587.56
2019-04-03T17:53:02.187Z,95588.14
2019-04-03T17:56:12.346Z,95585.00
2019-04-03T17:59:18.319Z,95583.13
2019-04-03T18:02:29.528Z,95573.99
2019-04-03T18:05:36.103Z,95577.25
2019-04-03T18:08:43.412Z,95579.71
2019-04-03T18:11:50.293Z,95573.41
2019-04-03T18:14:57.515Z,95587.16
2019-04-03T18:18:05.230Z,95587.40
2019-04-03T18:21:13.086Z,95575.77
2019-04-03T18:24:23.025Z,95578.25
2019-04-03T18:27:34.941Z,95582.14
2019-04-03T18:30:42.550Z,95582.98
2019-04-03T18:33:49.981Z,95588.98
2019-04-03T18:36:57.962Z,95583.58
2019-04-03T18:40:05.832Z,95574.67
2019-04-03T18:43:12.726Z,95573.64
2019-04-03T18:46:31.521Z,95573.44
2019-04-03T18:49:32.339Z,95568.67
2019-04-03T18:52:39.519Z,95570.11
2019-04-03T18:55:46.453Z,95575.27
2019-04-03T18:58:55.115Z,95574.24
2019-04-03T19:02:03.773Z,95573.79
2019-04-03T19:05:13.815Z,95577.98
2019-04-03T19:08:19.541Z,95574.73
2019-04-03T19:11:29.600Z,95581.96
2019-04-03T19:14:39.390Z,95576.02
2019-04-03T19:17:46.255Z,95579.09
2019-04-03T19:20:53.284Z,95579.65
2019-04-03T19:24:00.235Z,95578.17
2019-04-03T19:27:07.172Z,95568.64
2019-04-03T19:30:18.910Z,95562.63
2019-04-03T19:33:28.052Z,95568.09
2019-04-03T19:36:34.924Z,95564.27
2019-04-03T19:39:41.827Z,95570.61
2019-04-03T19:42:49.053Z,95570.27
2019-04-03T19:45:56.051Z,95566.30
2019-04-03T19:49:03.100Z,95567.92
2019-04-03T19:52:10.075Z,95566.41
2019-04-03T19:55:19.351Z,95562.67
2019-04-03T19:58:28.933Z,95561.84
2019-04-03T20:01:34.536Z,95557.27
2019-04-03T20:04:41.443Z,95560.34
2019-04-03T20:07:48.366Z,95559.33
2019-04-03T20:10:55.352Z,95555.00
2019-04-03T20:14:02.862Z,95551.45
2019-04-03T20:17:11.270Z,95540.37
2019-04-03T20:20:18.138Z,95546.66
2019-04-03T20:23:30.300Z,95536.56
2019-04-03T20:26:38.256Z,95541.43
2019-04-03T20:29:45.191Z,95547.30
2019-04-03T20:32:52.319Z,95543.36
2019-04-03T20:35:59.337Z,95548.26
2019-04-03T20:39:09.659Z,95549.25
2019-04-03T20:42:16.570Z,95548.73
2019-04-03T20:45:23.564Z,95552.57
2019-04-03T20:48:30.449Z,95541.24
2019-04-03T20:51:38.024Z,95538.99
2019-04-03T20:54:47.593Z,95536.88
2019-04-03T20:57:56.052Z,95531.77
2019-04-03T21:01:06.679Z,95533.72
2019-04-03T21:04:14.621Z,95531.62
2019-04-03T21:07:23.764Z,95523.11
2019-04-03T21:10:31.187Z,95524.84
2019-04-03T21:13:39.778Z,95517.22
2019-04-03T21:16:48.469Z,95515.07
2019-04-03T21:19:58.254Z,95518.16
2019-04-03T21:23:05.102Z,95512.41
2019-04-03T21:26:13.790Z,95512.72
2019-04-03T21:29:20.819Z,95510.39
2019-04-03T21:32:28.803Z,95512.17
2019-04-03T21:35:36.499Z,95506.19
2019-04-03T21:38:44.249Z,95504.83
2019-04-03T21:41:51.123Z,95506.41
2019-04-03T21:44:58.085Z,95501.91
2019-04-03T21:48:04.964Z,95504.21
2019-04-03T21:51:11.952Z,95508.14
2019-04-03T21:54:18.801Z,95506.62
2019-04-03T21:57:25.729Z,95507.66
2019-04-03T22:01:18.067Z,95505.32
2019-04-03T22:04:25.073Z,95508.28
2019-04-03T22:07:34.582Z,95505.16
2019-04-03T22:10:50.271Z,95506.61
2019-04-03T22:13:56.021Z,95506.89
2019-04-03T22:17:04.354Z,95502.63
2019-04-03T22:20:11.200Z,95498.95
2019-04-03T22:23:18.106Z,95500.20
2019-04-03T22:26:24.951Z,95495.65
2019-04-03T22:29:31.832Z,95494.23
2019-04-03T22:32:41.301Z,95490.22
2019-04-03T22:35:47.198Z,95498.95
2019-04-03T22:38:54.158Z,95496.36
2019-04-03T22:42:02.058Z,95496.70
2019-04-03T22:45:09.031Z,95498.58
2019-04-03T22:48:15.918Z,95500.97
2019-04-03T22:51:22.811Z,95505.16
2019-04-03T22:54:29.816Z,95509.82
2019-04-03T22:57:36.658Z,95507.34
2019-04-03T23:00:46.107Z,95505.64
2019-04-03T23:03:52.994Z,95506.62
2019-04-03T23:06:59.879Z,95505.45
2019-04-03T23:10:07.353Z,95505.36
2019-04-03T23:13:14.240Z,95503.66
2019-04-03T23:16:21.343Z,95499.90
2019-04-03T23:19:28.591Z,95499.94
2019-04-03T23:22:35.371Z,95500.52
2019-04-03T23:25:43.253Z,95500.58
2019-04-03T23:28:50.129Z,95501.30
2019-04-03T23:31:57.068Z,95505.58
2019-04-03T23:35:03.969Z,95503.98
2019-04-03T23:38:10.887Z,95501.80
2019-04-03T23:41:17.716Z,95509.45
2019-04-03T23:44:24.608Z,95502.17
2019-04-03T23:47:32.537Z,95497.13
2019-04-03T23:50:40.146Z,95494.77
2019-04-03T23:53:49.003Z,95490.50
2019-04-03T23:56:55.571Z,95485.79
